Time;durP1;ratioP1;P1;durP2;ratioP2;P2;SDS_P1;SDS_P2;PMS_P1;PMS_P2;Temp;Humidity;BMP_temperature;BMP_pressure;BME280_temperature;BME280_humidity;BME280_pressure;Samples;Min_cycle;Max_cycle;Signal;HPM_P1;HPM_P2
2023/07/08 00:00:17;;;;;;;4.35;3.00;;;;;;;;;;5098695;27;42185;-59
2023/07/08 00:02:49;;;;;;;3.10;2.80;;;;;;;;;;5106617;28;42968;-58
2023/07/08 00:05:18;;;;;;;3.15;2.83;;;;;;;;;;5106478;27;40716;-58
2023/07/08 00:07:46;;;;;;;3.55;2.95;;;;;;;;;;5108027;27;42221;-58
2023/07/08 00:10:15;;;;;;;4.22;2.90;;;;;;;;;;5108121;28;41300;-58
2023/07/08 00:12:43;;;;;;;3.15;2.85;;;;;;;;;;5107109;27;42591;-58
2023/07/08 00:15:13;;;;;;;4.47;2.63;;;;;;;;;;5086640;27;43381;-58
2023/07/08 00:17:41;;;;;;;3.50;2.80;;;;;;;;;;5106687;27;41148;-58
2023/07/08 00:20:15;;;;;;;3.55;2.75;;;;;;;;;;5106945;27;42138;-57
2023/07/08 00:22:46;;;;;;;4.00;2.97;;;;;;;;;;5107430;27;43079;-57
2023/07/08 00:25:15;;;;;;;3.03;2.60;;;;;;;;;;5107541;27;39820;-57
2023/07/08 00:27:43;;;;;;;3.67;2.72;;;;;;;;;;5107010;27;42258;-57
2023/07/08 00:30:29;;;;;;;5.65;3.17;;;;;;;;;;5109239;27;38742;-58
2023/07/08 00:32:58;;;;;;;4.80;2.60;;;;;;;;;;5109563;28;41410;-58
2023/07/08 00:35:27;;;;;;;3.10;2.70;;;;;;;;;;5109589;28;41772;-57
2023/07/08 00:38:01;;;;;;;4.22;2.65;;;;;;;;;;5111417;28;40652;-58
2023/07/08 00:40:29;;;;;;;4.63;2.83;;;;;;;;;;5109214;28;41296;-58
2023/07/08 00:42:57;;;;;;;4.65;3.10;;;;;;;;;;5111270;27;42378;-58
2023/07/08 00:45:32;;;;;;;3.63;2.60;;;;;;;;;;5110584;28;41303;-58
2023/07/08 00:48:03;;;;;;;4.18;3.03;;;;;;;;;;5108525;28;41279;-58
2023/07/08 00:50:31;;;;;;;5.55;2.65;;;;;;;;;;5126268;27;41603;-58
2023/07/08 00:53:18;;;;;;;3.35;2.85;;;;;;;;;;5109755;28;41673;-58
2023/07/08 00:55:46;;;;;;;3.42;3.00;;;;;;;;;;5109078;28;42063;-58
2023/07/08 00:58:14;;;;;;;2.72;2.40;;;;;;;;;;5108463;28;39005;-58
2023/07/08 01:00:42;;;;;;;4.57;2.90;;;;;;;;;;5110385;28;41994;-58
2023/07/08 01:03:11;;;;;;;3.28;2.80;;;;;;;;;;5109693;28;42122;-58
2023/07/08 01:05:39;;;;;;;4.22;2.78;;;;;;;;;;5109761;28;41166;-58
2023/07/08 01:08:08;;;;;;;3.42;2.70;;;;;;;;;;5109659;28;40211;-59
2023/07/08 01:10:38;;;;;;;5.88;2.80;;;;;;;;;;5107975;28;41823;-58
2023/07/08 01:13:07;;;;;;;3.60;2.92;;;;;;;;;;5111106;28;42502;-57
2023/07/08 01:15:38;;;;;;;3.70;2.88;;;;;;;;;;5107946;27;42253;-58
2023/07/08 01:18:06;;;;;;;3.63;2.85;;;;;;;;;;5104425;27;40747;-58
2023/07/08 01:20:37;;;;;;;4.07;2.78;;;;;;;;;;5094239;27;41626;-58
2023/07/08 01:23:06;;;;;;;4.35;3.00;;;;;;;;;;5098295;28;41496;-58
2023/07/08 01:25:34;;;;;;;3.55;2.53;;;;;;;;;;5092620;28;41815;-58
2023/07/08 01:28:02;;;;;;;3.17;2.42;;;;;;;;;;5110106;28;41273;-57
2023/07/08 01:30:30;;;;;;;4.00;2.90;;;;;;;;;;5108852;28;42092;-58
2023/07/08 01:33:02;;;;;;;5.43;2.75;;;;;;;;;;5110493;28;40472;-58
2023/07/08 01:35:31;;;;;;;3.20;2.90;;;;;;;;;;5107081;28;42750;-58
2023/07/08 01:37:59;;;;;;;4.22;2.95;;;;;;;;;;5109441;28;40526;-58
2023/07/08 01:40:30;;;;;;;3.70;2.60;;;;;;;;;;5108626;27;42688;-58
2023/07/08 01:42:58;;;;;;;5.78;2.60;;;;;;;;;;5110193;28;41693;-57
2023/07/08 01:45:27;;;;;;;3.20;2.60;;;;;;;;;;5107333;28;38981;-58
2023/07/08 01:47:56;;;;;;;3.22;2.60;;;;;;;;;;5109494;27;41670;-58
2023/07/08 01:50:24;;;;;;;3.45;2.80;;;;;;;;;;5107061;28;40754;-58
2023/07/08 01:52:52;;;;;;;3.25;2.40;;;;;;;;;;5108821;27;41356;-58
2023/07/08 01:55:24;;;;;;;3.55;2.50;;;;;;;;;;5108432;28;40172;-58
2023/07/08 01:57:53;;;;;;;3.10;2.50;;;;;;;;;;5109056;27;41454;-58
2023/07/08 02:00:22;;;;;;;3.40;2.60;;;;;;;;;;5107837;28;40356;-58
2023/07/08 02:02:50;;;;;;;3.58;2.80;;;;;;;;;;5108706;27;43093;-58
2023/07/08 02:05:18;;;;;;;2.90;2.60;;;;;;;;;;5107398;28;41604;-58
2023/07/08 02:07:46;;;;;;;2.80;2.50;;;;;;;;;;5108853;27;40046;-57
2023/07/08 02:10:14;;;;;;;3.80;2.83;;;;;;;;;;5109753;28;43148;-59
2023/07/08 02:12:42;;;;;;;2.88;2.67;;;;;;;;;;5108422;28;41328;-58
2023/07/08 02:15:12;;;;;;;4.78;2.58;;;;;;;;;;5107916;28;40109;-56
2023/07/08 02:17:40;;;;;;;4.53;3.05;;;;;;;;;;5109071;28;42222;-58
2023/07/08 02:20:09;;;;;;;3.55;2.60;;;;;;;;;;5124739;27;41226;-58
2023/07/08 02:22:37;;;;;;;3.75;2.45;;;;;;;;;;5108836;28;42251;-57
2023/07/08 02:25:06;;;;;;;3.13;2.47;;;;;;;;;;5107608;28;38993;-58
2023/07/08 02:27:34;;;;;;;3.78;2.63;;;;;;;;;;5107618;28;41270;-58
2023/07/08 02:30:02;;;;;;;4.43;2.88;;;;;;;;;;5107551;28;41260;-58
2023/07/08 02:32:35;;;;;;;3.13;2.42;;;;;;;;;;5107243;28;38894;-58
2023/07/08 02:35:03;;;;;;;5.13;3.33;;;;;;;;;;5108808;27;41246;-58
2023/07/08 02:37:32;;;;;;;6.82;2.97;;;;;;;;;;5106890;28;40652;-58
2023/07/08 02:40:00;;;;;;;4.35;2.72;;;;;;;;;;5088866;28;41504;-58
2023/07/08 02:42:27;;;;;;;3.95;2.67;;;;;;;;;;5088356;28;41975;-57
2023/07/08 02:44:55;;;;;;;5.03;2.55;;;;;;;;;;5087124;28;39858;-57
2023/07/08 02:47:23;;;;;;;3.72;2.78;;;;;;;;;;5087401;28;41585;-58
2023/07/08 02:49:54;;;;;;;3.78;2.58;;;;;;;;;;5095051;28;42082;-58
2023/07/08 02:52:22;;;;;;;4.03;2.63;;;;;;;;;;5107414;27;41544;-58
2023/07/08 02:54:50;;;;;;;2.83;2.50;;;;;;;;;;5108360;28;41955;-58
2023/07/08 02:57:18;;;;;;;4.05;2.70;;;;;;;;;;5108434;28;41534;-58
2023/07/08 02:59:46;;;;;;;5.25;2.50;;;;;;;;;;5109123;28;40563;-58
2023/07/08 03:02:14;;;;;;;4.75;2.85;;;;;;;;;;5106662;28;40304;-60
2023/07/08 03:04:42;;;;;;;2.70;2.40;;;;;;;;;;5108670;28;41110;-57
2023/07/08 03:07:11;;;;;;;4.47;2.60;;;;;;;;;;5107192;28;40930;-58
2023/07/08 03:09:39;;;;;;;3.33;2.75;;;;;;;;;;5107321;27;41583;-58
2023/07/08 03:12:09;;;;;;;2.88;2.50;;;;;;;;;;5107003;28;39177;-56
2023/07/08 03:14:37;;;;;;;2.78;2.38;;;;;;;;;;5123190;27;40271;-56
2023/07/08 03:17:05;;;;;;;4.43;3.00;;;;;;;;;;5106208;28;41659;-58
2023/07/08 03:19:33;;;;;;;3.45;2.75;;;;;;;;;;5108039;28;40438;-57
2023/07/08 03:22:03;;;;;;;3.42;2.70;;;;;;;;;;5107311;28;41888;-58
2023/07/08 03:24:32;;;;;;;3.50;2.58;;;;;;;;;;5106942;28;31455;-58
2023/07/08 03:27:04;;;;;;;2.90;2.35;;;;;;;;;;5106909;28;41358;-58
2023/07/08 03:29:35;;;;;;;3.92;2.63;;;;;;;;;;5121965;27;41608;-58
2023/07/08 03:32:04;;;;;;;4.28;2.97;;;;;;;;;;5106840;28;38777;-58
2023/07/08 03:34:32;;;;;;;3.55;2.55;;;;;;;;;;5103845;27;41891;-57
2023/07/08 03:37:00;;;;;;;2.97;2.67;;;;;;;;;;5096815;28;42219;-59
2023/07/08 03:39:29;;;;;;;4.68;2.75;;;;;;;;;;5106342;28;39030;-57
2023/07/08 03:41:59;;;;;;;5.85;2.70;;;;;;;;;;5108415;27;41749;-58
2023/07/08 03:44:27;;;;;;;4.22;2.67;;;;;;;;;;5107233;28;42253;-58
2023/07/08 03:46:55;;;;;;;2.97;2.53;;;;;;;;;;5106088;28;41023;-57
2023/07/08 03:49:23;;;;;;;3.15;2.35;;;;;;;;;;5107129;27;42072;-58
2023/07/08 03:51:53;;;;;;;3.00;2.70;;;;;;;;;;5105437;28;39270;-57
2023/07/08 03:54:22;;;;;;;3.70;2.63;;;;;;;;;;5107650;27;41796;-58
2023/07/08 03:56:49;;;;;;;2.85;2.63;;;;;;;;;;5107807;28;42144;-58
2023/07/08 03:59:19;;;;;;;3.53;2.80;;;;;;;;;;5106709;28;40160;-58
2023/07/08 04:01:47;;;;;;;4.38;2.58;;;;;;;;;;5106176;28;40123;-58
2023/07/08 04:04:16;;;;;;;3.78;2.55;;;;;;;;;;5105223;28;40549;-58
2023/07/08 04:06:45;;;;;;;6.35;2.58;;;;;;;;;;5107221;28;39213;-58
2023/07/08 04:09:13;;;;;;;4.38;2.80;;;;;;;;;;5107662;28;42914;-58
2023/07/08 04:11:41;;;;;;;3.65;2.50;;;;;;;;;;5106588;27;40777;-56
2023/07/08 04:14:10;;;;;;;3.75;2.85;;;;;;;;;;5107466;27;41623;-57
2023/07/08 04:16:45;;;;;;;3.10;2.80;;;;;;;;;;5106946;27;42809;-58
2023/07/08 04:19:15;;;;;;;3.22;2.53;;;;;;;;;;5100163;27;42424;-59
2023/07/08 04:21:44;;;;;;;4.25;2.75;;;;;;;;;;5088045;27;41904;-58
2023/07/08 04:24:12;;;;;;;3.25;2.50;;;;;;;;;;5087184;28;43225;-58
2023/07/08 04:26:40;;;;;;;3.40;2.78;;;;;;;;;;5100507;28;39916;-57
2023/07/08 04:29:10;;;;;;;3.38;2.42;;;;;;;;;;5107786;27;42625;-58
2023/07/08 04:31:38;;;;;;;2.80;2.40;;;;;;;;;;5106853;27;40312;-58
2023/07/08 04:34:08;;;;;;;3.60;2.47;;;;;;;;;;5097294;27;42234;-56
2023/07/08 04:36:36;;;;;;;4.43;2.70;;;;;;;;;;5099045;28;43181;-57
2023/07/08 04:39:04;;;;;;;3.20;2.40;;;;;;;;;;5095053;27;40387;-58
2023/07/08 04:41:32;;;;;;;3.25;2.60;;;;;;;;;;5096994;27;42983;-58
2023/07/08 04:44:02;;;;;;;4.22;2.50;;;;;;;;;;5089868;28;42427;-58
2023/07/08 04:46:34;;;;;;;3.22;2.80;;;;;;;;;;5106065;27;39865;-58
2023/07/08 04:49:03;;;;;;;2.80;2.47;;;;;;;;;;5092984;27;42521;-58
2023/07/08 04:51:32;;;;;;;4.43;2.95;;;;;;;;;;5107190;27;42802;-58
2023/07/08 04:54:00;;;;;;;7.00;3.03;;;;;;;;;;5098893;28;42638;-58
2023/07/08 04:56:35;;;;;;;3.67;2.80;;;;;;;;;;5096526;27;41702;-58
2023/07/08 04:59:03;;;;;;;3.13;2.83;;;;;;;;;;5087259;28;40947;-58
2023/07/08 05:01:31;;;;;;;3.15;2.67;;;;;;;;;;5089821;28;42226;-61
2023/07/08 05:03:59;;;;;;;5.95;3.70;;;;;;;;;;5107122;27;42129;-60
2023/07/08 05:06:27;;;;;;;6.20;3.50;;;;;;;;;;5106548;27;40155;-60
2023/07/08 05:08:57;;;;;;;7.95;4.03;;;;;;;;;;5094238;27;41500;-63
2023/07/08 05:11:25;;;;;;;9.25;4.78;;;;;;;;;;5098959;28;42773;-59
2023/07/08 05:13:53;;;;;;;5.35;3.78;;;;;;;;;;5107309;27;41458;-66
2023/07/08 05:16:21;;;;;;;7.38;3.92;;;;;;;;;;5102313;27;42158;-59
2023/07/08 05:18:49;;;;;;;12.23;4.00;;;;;;;;;;5094150;27;40473;-59
2023/07/08 05:21:20;;;;;;;5.95;3.38;;;;;;;;;;5096450;27;42597;-59
2023/07/08 05:23:49;;;;;;;5.35;3.90;;;;;;;;;;5109359;27;42623;-59
2023/07/08 05:26:18;;;;;;;5.72;3.70;;;;;;;;;;5093024;27;40495;-59
2023/07/08 05:28:46;;;;;;;9.80;3.88;;;;;;;;;;5108683;27;42253;-59
2023/07/08 05:31:14;;;;;;;5.15;3.83;;;;;;;;;;5096437;27;42224;-59
2023/07/08 05:33:42;;;;;;;6.63;3.50;;;;;;;;;;5110005;27;43179;-59
2023/07/08 05:36:10;;;;;;;7.78;3.50;;;;;;;;;;5108947;27;43097;-59
2023/07/08 05:38:38;;;;;;;5.28;3.17;;;;;;;;;;5108413;27;40180;-59
2023/07/08 05:41:06;;;;;;;7.97;3.47;;;;;;;;;;5109646;27;41642;-59
2023/07/08 05:43:35;;;;;;;3.83;3.13;;;;;;;;;;5108512;28;43207;-59
2023/07/08 05:46:03;;;;;;;6.22;3.45;;;;;;;;;;5109911;28;40339;-59
2023/07/08 05:48:39;;;;;;;3.65;3.15;;;;;;;;;;5109295;27;42255;-58
2023/07/08 05:51:07;;;;;;;4.60;3.25;;;;;;;;;;5108864;28;42724;-59
2023/07/08 05:53:35;;;;;;;4.97;3.45;;;;;;;;;;5109365;27;40359;-59
2023/07/08 05:56:03;;;;;;;5.40;3.30;;;;;;;;;;5109638;27;41307;-59
2023/07/08 05:58:31;;;;;;;4.10;3.15;;;;;;;;;;5108364;27;42086;-59
2023/07/08 06:01:00;;;;;;;8.75;3.38;;;;;;;;;;5109701;27;41680;-59
2023/07/08 06:03:29;;;;;;;5.03;3.20;;;;;;;;;;5108538;27;41350;-59
2023/07/08 06:05:57;;;;;;;4.68;3.22;;;;;;;;;;5092933;27;40557;-57
2023/07/08 06:08:25;;;;;;;4.85;3.15;;;;;;;;;;5088047;28;42646;-58
2023/07/08 06:10:53;;;;;;;6.22;3.78;;;;;;;;;;5105247;28;42760;-58
2023/07/08 06:13:21;;;;;;;4.80;3.40;;;;;;;;;;5108314;27;41521;-57
2023/07/08 06:15:49;;;;;;;4.10;3.40;;;;;;;;;;5109082;27;42839;-58
2023/07/08 06:18:19;;;;;;;4.22;3.45;;;;;;;;;;5108397;27;43203;-56
2023/07/08 06:20:53;;;;;;;6.15;3.85;;;;;;;;;;5108675;27;41038;-57
2023/07/08 06:23:21;;;;;;;7.82;4.18;;;;;;;;;;5108548;27;42132;-58
2023/07/08 06:25:49;;;;;;;6.68;3.35;;;;;;;;;;5108503;27;40759;-56
2023/07/08 06:28:17;;;;;;;5.28;3.50;;;;;;;;;;5109028;27;41804;-57
2023/07/08 06:30:45;;;;;;;7.22;3.58;;;;;;;;;;5093334;27;42885;-57
2023/07/08 06:33:13;;;;;;;4.55;3.60;;;;;;;;;;5087449;28;40277;-56
2023/07/08 06:35:42;;;;;;;7.28;3.75;;;;;;;;;;5087883;28;43978;-58
2023/07/08 06:38:10;;;;;;;5.25;3.72;;;;;;;;;;5102863;27;43129;-56
2023/07/08 06:40:38;;;;;;;8.60;3.90;;;;;;;;;;5103657;27;40354;-57
2023/07/08 06:43:06;;;;;;;5.88;3.97;;;;;;;;;;5099583;27;43113;-55
2023/07/08 06:45:42;;;;;;;7.38;3.45;;;;;;;;;;5085777;28;39199;-57
2023/07/08 06:48:10;;;;;;;5.72;3.80;;;;;;;;;;5088130;28;41830;-55
2023/07/08 06:50:38;;;;;;;10.75;4.00;;;;;;;;;;5091196;28;41639;-57
2023/07/08 06:53:08;;;;;;;3.92;2.92;;;;;;;;;;5107502;27;41791;-57
2023/07/08 06:55:36;;;;;;;5.68;3.15;;;;;;;;;;5108480;27;42556;-56
2023/07/08 06:58:04;;;;;;;8.93;3.40;;;;;;;;;;5108840;27;41624;-56
2023/07/08 07:00:32;;;;;;;4.43;3.47;;;;;;;;;;5098757;27;40272;-53
2023/07/08 07:03:00;;;;;;;8.50;3.08;;;;;;;;;;5095671;28;42785;-55
2023/07/08 07:05:28;;;;;;;4.72;2.97;;;;;;;;;;5099427;28;40781;-57
2023/07/08 07:07:56;;;;;;;6.82;3.38;;;;;;;;;;5100146;27;41534;-57
2023/07/08 07:10:25;;;;;;;6.28;3.17;;;;;;;;;;5099091;27;42849;-56
2023/07/08 07:12:53;;;;;;;4.68;3.35;;;;;;;;;;5103044;28;41568;-56
2023/07/08 07:15:21;;;;;;;4.32;3.42;;;;;;;;;;5097951;27;42384;-55
2023/07/08 07:17:49;;;;;;;3.75;3.30;;;;;;;;;;5098878;28;41527;-56
2023/07/08 07:20:18;;;;;;;4.82;2.97;;;;;;;;;;5096044;28;40704;-57
2023/07/08 07:22:46;;;;;;;11.80;3.30;;;;;;;;;;5091706;27;42520;-55
2023/07/08 07:25:14;;;;;;;6.28;3.72;;;;;;;;;;5097283;28;42462;-56
2023/07/08 07:27:43;;;;;;;7.40;3.45;;;;;;;;;;5098142;27;42777;-56
2023/07/08 07:30:14;;;;;;;5.38;3.13;;;;;;;;;;5095833;28;42519;-57
2023/07/08 07:32:42;;;;;;;6.43;3.03;;;;;;;;;;5093727;27;39383;-59
2023/07/08 07:35:12;;;;;;;4.68;3.45;;;;;;;;;;5086839;28;41725;-54
2023/07/08 07:37:40;;;;;;;3.92;3.17;;;;;;;;;;5093821;27;42203;-55
2023/07/08 07:40:12;;;;;;;8.25;3.50;;;;;;;;;;5101914;27;40511;-54
2023/07/08 07:42:40;;;;;;;7.15;3.40;;;;;;;;;;5094928;27;42334;-55
2023/07/08 07:45:09;;;;;;;6.93;3.40;;;;;;;;;;5096660;27;43161;-54
2023/07/08 07:47:37;;;;;;;5.38;3.63;;;;;;;;;;5094748;27;42359;-53
2023/07/08 07:50:06;;;;;;;5.50;3.35;;;;;;;;;;5097004;28;42032;-55
2023/07/08 07:52:34;;;;;;;4.75;3.22;;;;;;;;;;5097447;28;40935;-55
2023/07/08 07:55:02;;;;;;;5.88;3.78;;;;;;;;;;5097519;27;41537;-56
2023/07/08 07:57:30;;;;;;;6.93;3.72;;;;;;;;;;5096383;28;42170;-55
2023/07/08 07:59:58;;;;;;;4.88;3.28;;;;;;;;;;5095773;28;40507;-56
2023/07/08 08:02:27;;;;;;;8.95;3.47;;;;;;;;;;5095565;27;42172;-56
2023/07/08 08:04:55;;;;;;;4.38;3.63;;;;;;;;;;5100638;27;43389;-54
2023/07/08 08:07:23;;;;;;;4.47;3.17;;;;;;;;;;5099927;28;40919;-58
2023/07/08 08:09:51;;;;;;;5.13;3.80;;;;;;;;;;5099608;27;43138;-57
2023/07/08 08:12:19;;;;;;;5.05;3.67;;;;;;;;;;5105087;28;41371;-55
2023/07/08 08:14:47;;;;;;;5.05;3.50;;;;;;;;;;5101499;27;41979;-56
2023/07/08 08:17:15;;;;;;;5.22;3.95;;;;;;;;;;5096527;27;41797;-57
2023/07/08 08:19:45;;;;;;;6.25;3.67;;;;;;;;;;5102608;28;39991;-55
2023/07/08 08:22:13;;;;;;;8.00;3.20;;;;;;;;;;5106923;27;42004;-54
2023/07/08 08:24:41;;;;;;;4.53;3.67;;;;;;;;;;5106265;27;41003;-57
2023/07/08 08:27:09;;;;;;;4.63;3.40;;;;;;;;;;5107381;27;41764;-56
2023/07/08 08:29:37;;;;;;;7.47;4.00;;;;;;;;;;5106131;27;41584;-58
2023/07/08 08:32:05;;;;;;;4.80;3.63;;;;;;;;;;5106592;27;40667;-56
2023/07/08 08:34:33;;;;;;;4.18;3.45;;;;;;;;;;5100572;27;41761;-57
2023/07/08 08:37:03;;;;;;;10.05;3.95;;;;;;;;;;5100539;28;43224;-56
2023/07/08 08:39:31;;;;;;;7.30;3.92;;;;;;;;;;5103856;27;41083;-56
2023/07/08 08:41:59;;;;;;;8.43;4.45;;;;;;;;;;5094922;28;41868;-56
2023/07/08 08:44:29;;;;;;;7.32;3.95;;;;;;;;;;5087291;28;42171;-53
2023/07/08 08:47:01;;;;;;;9.70;3.97;;;;;;;;;;5105994;27;40026;-56
2023/07/08 08:49:31;;;;;;;9.25;4.20;;;;;;;;;;5107570;27;41777;-55
2023/07/08 08:51:59;;;;;;;12.30;4.20;;;;;;;;;;5110751;27;42093;-53
2023/07/08 08:54:29;;;;;;;5.85;4.07;;;;;;;;;;5104327;27;42413;-55
2023/07/08 08:56:58;;;;;;;11.27;4.15;;;;;;;;;;5107675;27;42185;-53
2023/07/08 08:59:28;;;;;;;6.68;4.50;;;;;;;;;;5097457;28;41054;-55
2023/07/08 09:01:56;;;;;;;4.63;3.88;;;;;;;;;;5103287;28;42541;-55
2023/07/08 09:04:25;;;;;;;4.28;3.88;;;;;;;;;;5107322;27;41621;-56
2023/07/08 09:06:54;;;;;;;5.05;3.95;;;;;;;;;;5103472;27;39694;-54
2023/07/08 09:09:22;;;;;;;5.15;4.22;;;;;;;;;;5102878;27;42622;-56
2023/07/08 09:11:52;;;;;;;4.82;3.80;;;;;;;;;;5106221;27;42156;-55
2023/07/08 09:14:21;;;;;;;6.20;3.90;;;;;;;;;;5105391;27;40001;-56
2023/07/08 09:16:51;;;;;;;7.65;4.15;;;;;;;;;;5102469;28;42007;-56
2023/07/08 09:19:22;;;;;;;4.90;4.00;;;;;;;;;;5097114;27;40015;-55
2023/07/08 09:21:52;;;;;;;9.50;3.97;;;;;;;;;;5099910;28;41701;-56
2023/07/08 09:24:21;;;;;;;5.35;4.22;;;;;;;;;;5105600;28;41537;-59
2023/07/08 09:26:49;;;;;;;4.75;4.13;;;;;;;;;;5103492;28;39800;-74
2023/07/08 09:29:18;;;;;;;6.50;3.78;;;;;;;;;;5099724;27;42348;-63
2023/07/08 09:31:46;;;;;;;9.38;4.32;;;;;;;;;;5106949;28;42140;-59
2023/07/08 09:34:15;;;;;;;7.07;4.18;;;;;;;;;;5106801;27;40431;-59
2023/07/08 09:36:44;;;;;;;6.50;3.75;;;;;;;;;;5103112;27;41296;-58
2023/07/08 09:39:12;;;;;;;6.97;4.22;;;;;;;;;;5110180;27;40949;-58
2023/07/08 09:41:40;;;;;;;7.93;4.00;;;;;;;;;;5109464;27;41641;-59
2023/07/08 09:44:16;;;;;;;11.93;4.50;;;;;;;;;;5097330;27;42295;-59
2023/07/08 09:46:45;;;;;;;12.77;3.92;;;;;;;;;;5090116;28;40067;-59
2023/07/08 09:49:17;;;;;;;8.63;4.32;;;;;;;;;;5088799;28;41729;-59
2023/07/08 09:51:45;;;;;;;8.50;4.35;;;;;;;;;;5098448;28;43065;-60
2023/07/08 09:54:13;;;;;;;16.30;4.70;;;;;;;;;;5109985;27;41032;-59
2023/07/08 09:56:42;;;;;;;15.40;4.50;;;;;;;;;;5109387;27;41356;-59
2023/07/08 09:59:13;;;;;;;9.10;4.13;;;;;;;;;;5110232;27;41345;-59
2023/07/08 10:01:41;;;;;;;5.57;4.32;;;;;;;;;;5108083;27;41580;-59
2023/07/08 10:04:10;;;;;;;15.65;4.68;;;;;;;;;;5108733;27;42473;-59
2023/07/08 10:06:38;;;;;;;7.22;4.18;;;;;;;;;;5109371;27;42383;-59
2023/07/08 10:09:09;;;;;;;12.20;4.57;;;;;;;;;;5109388;27;42557;-59
2023/07/08 10:11:38;;;;;;;8.90;3.97;;;;;;;;;;5098075;27;42266;-58
2023/07/08 10:14:08;;;;;;;6.38;4.25;;;;;;;;;;5071544;27;40967;-58
2023/07/08 10:16:43;;;;;;;9.45;4.70;;;;;;;;;;5070649;27;42390;-58
2023/07/08 10:19:14;;;;;;;9.40;4.80;;;;;;;;;;5071711;27;43207;-58
2023/07/08 10:21:44;;;;;;;9.95;4.63;;;;;;;;;;5071428;27;42942;-58
2023/07/08 10:24:18;;;;;;;6.63;4.43;;;;;;;;;;5060841;27;45554;-59
2023/07/08 10:26:47;;;;;;;10.40;4.95;;;;;;;;;;5072256;27;40656;-59
2023/07/08 10:29:16;;;;;;;5.18;4.25;;;;;;;;;;5066146;27;42784;-58
2023/07/08 10:31:46;;;;;;;7.43;4.82;;;;;;;;;;5071106;27;43141;-58
2023/07/08 10:34:21;;;;;;;8.98;4.70;;;;;;;;;;5058526;28;40346;-58
2023/07/08 10:36:51;;;;;;;11.02;4.63;;;;;;;;;;5070993;27;42688;-64
2023/07/08 10:39:33;;;;;;;4.93;4.40;;;;;;;;;;5066766;27;42873;-55
2023/07/08 10:42:03;;;;;;;10.95;4.85;;;;;;;;;;5065572;27;38170;-59
2023/07/08 10:44:32;;;;;;;10.15;4.70;;;;;;;;;;5069681;27;42092;-58
2023/07/08 10:47:01;;;;;;;11.23;4.50;;;;;;;;;;5067020;27;41398;-58
2023/07/08 10:49:34;;;;;;;9.55;5.38;;;;;;;;;;5069311;27;41825;-59
2023/07/08 10:52:06;;;;;;;9.77;4.82;;;;;;;;;;5065871;27;39782;-61
2023/07/08 10:54:42;;;;;;;7.45;4.78;;;;;;;;;;5066748;27;40556;-58
2023/07/08 10:57:16;;;;;;;11.30;4.47;;;;;;;;;;5067740;27;42232;-58
2023/07/08 10:59:48;;;;;;;11.85;4.72;;;;;;;;;;5092898;28;42723;-57
2023/07/08 11:02:19;;;;;;;10.23;4.78;;;;;;;;;;5106872;28;41356;-58
2023/07/08 11:04:51;;;;;;;7.00;4.90;;;;;;;;;;5094546;27;42346;-57
2023/07/08 11:07:23;;;;;;;8.10;4.85;;;;;;;;;;5086993;28;41412;-58
2023/07/08 11:09:52;;;;;;;7.28;4.88;;;;;;;;;;5104016;28;41644;-57
2023/07/08 11:12:24;;;;;;;7.50;4.88;;;;;;;;;;5097796;27;41997;-58
2023/07/08 11:14:52;;;;;;;8.98;4.97;;;;;;;;;;5102518;28;40552;-58
2023/07/08 11:17:21;;;;;;;12.38;5.32;;;;;;;;;;5096655;28;41638;-58
2023/07/08 11:19:51;;;;;;;8.50;4.68;;;;;;;;;;5087914;27;43316;-58
2023/07/08 11:22:21;;;;;;;8.90;4.93;;;;;;;;;;5086568;28;41281;-58
2023/07/08 11:24:50;;;;;;;6.68;4.75;;;;;;;;;;5087524;28;41769;-58
2023/07/08 11:27:24;;;;;;;11.98;5.18;;;;;;;;;;5106465;27;42016;-57
2023/07/08 11:29:52;;;;;;;9.40;4.68;;;;;;;;;;5107305;27;42128;-57
2023/07/08 11:32:22;;;;;;;7.72;4.80;;;;;;;;;;5106954;27;41849;-57
2023/07/08 11:34:51;;;;;;;8.10;4.57;;;;;;;;;;5107492;27;40472;-58
2023/07/08 11:37:21;;;;;;;12.15;4.90;;;;;;;;;;5107295;27;42511;-57
2023/07/08 11:39:54;;;;;;;11.23;4.85;;;;;;;;;;5108118;27;43603;-57
2023/07/08 11:42:22;;;;;;;8.45;5.00;;;;;;;;;;5106463;27;40423;-58
2023/07/08 11:44:52;;;;;;;9.50;5.05;;;;;;;;;;5107841;27;42200;-57
2023/07/08 11:47:23;;;;;;;9.07;5.13;;;;;;;;;;5107795;27;41946;-58
2023/07/08 11:49:52;;;;;;;8.55;4.68;;;;;;;;;;5107249;27;40032;-58
2023/07/08 11:52:20;;;;;;;6.60;4.80;;;;;;;;;;5106977;27;42339;-58
2023/07/08 11:54:49;;;;;;;4.90;4.13;;;;;;;;;;5107854;27;40281;-58
2023/07/08 11:57:18;;;;;;;6.10;4.47;;;;;;;;;;5106557;27;42528;-58
2023/07/08 11:59:46;;;;;;;11.40;4.90;;;;;;;;;;5107451;27;42685;-57
2023/07/08 12:02:14;;;;;;;7.32;5.03;;;;;;;;;;5107044;27;40363;-58
2023/07/08 12:04:57;;;;;;;8.18;4.93;;;;;;;;;;5106847;28;42368;-58
2023/07/08 12:07:32;;;;;;;6.40;4.70;;;;;;;;;;5107398;27;41782;-58
2023/07/08 12:10:00;;;;;;;6.50;4.70;;;;;;;;;;5106932;27;40359;-57
2023/07/08 12:12:31;;;;;;;7.35;4.60;;;;;;;;;;5107390;27;42122;-57
2023/07/08 12:15:02;;;;;;;7.43;5.10;;;;;;;;;;5107281;27;40889;-57
2023/07/08 12:17:30;;;;;;;7.40;4.50;;;;;;;;;;5106521;27;42503;-58
2023/07/08 12:19:59;;;;;;;7.60;5.05;;;;;;;;;;5107179;27;43113;-58
2023/07/08 12:22:27;;;;;;;6.95;5.22;;;;;;;;;;5106237;27;40912;-58
2023/07/08 12:24:55;;;;;;;8.07;4.80;;;;;;;;;;5106021;27;42625;-58
2023/07/08 12:27:23;;;;;;;6.72;4.82;;;;;;;;;;5106288;27;42158;-58
2023/07/08 12:29:52;;;;;;;8.68;4.78;;;;;;;;;;5106821;27;40316;-58
2023/07/08 12:32:25;;;;;;;5.45;4.50;;;;;;;;;;5106379;27;41645;-58
2023/07/08 12:34:53;;;;;;;5.53;4.47;;;;;;;;;;5107320;27;41337;-58
2023/07/08 12:37:23;;;;;;;5.15;4.65;;;;;;;;;;5106925;27;41902;-58
2023/07/08 12:39:59;;;;;;;7.05;4.50;;;;;;;;;;5105642;27;43216;-58
2023/07/08 12:42:27;;;;;;;7.18;5.03;;;;;;;;;;5106332;27;40382;-57
2023/07/08 12:44:55;;;;;;;6.97;4.78;;;;;;;;;;5106168;27;41679;-58
2023/07/08 12:47:23;;;;;;;7.95;4.93;;;;;;;;;;5106697;27;41768;-58
2023/07/08 12:49:53;;;;;;;6.75;4.90;;;;;;;;;;5107108;27;40112;-59
2023/07/08 12:52:23;;;;;;;7.70;5.32;;;;;;;;;;5104790;27;41975;-58
2023/07/08 12:54:53;;;;;;;5.75;4.50;;;;;;;;;;5107421;27;42445;-58
2023/07/08 12:57:21;;;;;;;6.35;4.95;;;;;;;;;;5106569;27;41599;-57
2023/07/08 12:59:49;;;;;;;9.10;5.15;;;;;;;;;;5106312;27;42628;-59
2023/07/08 13:02:18;;;;;;;5.28;4.55;;;;;;;;;;5105920;27;41361;-58
2023/07/08 13:04:46;;;;;;;6.05;5.15;;;;;;;;;;5107191;27;41657;-58
2023/07/08 13:07:18;;;;;;;5.28;4.70;;;;;;;;;;5106477;27;41609;-58
2023/07/08 13:09:51;;;;;;;7.05;4.93;;;;;;;;;;5106626;27;40140;-58
2023/07/08 13:12:22;;;;;;;6.45;4.93;;;;;;;;;;5106264;27;42279;-56
2023/07/08 13:14:50;;;;;;;5.50;4.50;;;;;;;;;;5106292;27;43109;-56
2023/07/08 13:17:18;;;;;;;5.10;4.60;;;;;;;;;;5106457;27;40285;-58
2023/07/08 13:19:46;;;;;;;8.45;4.47;;;;;;;;;;5106731;27;42702;-58
2023/07/08 13:22:15;;;;;;;6.13;5.00;;;;;;;;;;5106936;27;41236;-58
2023/07/08 13:24:43;;;;;;;5.72;5.07;;;;;;;;;;5106600;27;41524;-59
2023/07/08 13:27:14;;;;;;;5.53;4.57;;;;;;;;;;5105446;27;41789;-58
2023/07/08 13:29:42;;;;;;;6.50;4.40;;;;;;;;;;5105782;27;41132;-58
2023/07/08 13:32:11;;;;;;;8.55;5.13;;;;;;;;;;5106629;27;41849;-58
2023/07/08 13:34:39;;;;;;;4.88;4.20;;;;;;;;;;5105349;27;41461;-58
2023/07/08 13:37:10;;;;;;;6.80;4.90;;;;;;;;;;5108540;27;39686;-57
2023/07/08 13:39:38;;;;;;;5.28;4.78;;;;;;;;;;5109956;27;42564;-57
2023/07/08 13:42:07;;;;;;;8.63;4.93;;;;;;;;;;5109639;27;40617;-58
2023/07/08 13:44:36;;;;;;;5.15;4.47;;;;;;;;;;5108914;27;41808;-58
2023/07/08 13:47:05;;;;;;;4.95;4.45;;;;;;;;;;5108981;27;42068;-57
2023/07/08 13:49:39;;;;;;;5.95;4.90;;;;;;;;;;5108263;27;41425;-58
2023/07/08 13:52:08;;;;;;;4.95;4.40;;;;;;;;;;5109659;27;42663;-58
2023/07/08 13:54:38;;;;;;;5.95;4.93;;;;;;;;;;5109144;27;40647;-58
2023/07/08 13:57:09;;;;;;;6.70;5.00;;;;;;;;;;5108929;27;40975;-56
2023/07/08 13:59:38;;;;;;;6.43;5.32;;;;;;;;;;5109215;27;41463;-58
2023/07/08 14:02:14;;;;;;;4.93;4.45;;;;;;;;;;5108649;27;32999;-58
2023/07/08 14:04:42;;;;;;;5.80;5.20;;;;;;;;;;5109951;27;42336;-58
2023/07/08 14:07:12;;;;;;;6.25;5.43;;;;;;;;;;5109008;27;43013;-58
2023/07/08 14:09:40;;;;;;;6.15;5.03;;;;;;;;;;5108235;27;40478;-58
2023/07/08 14:12:08;;;;;;;7.90;4.90;;;;;;;;;;5109559;27;41211;-58
2023/07/08 14:14:36;;;;;;;5.95;4.93;;;;;;;;;;5108162;27;42732;-57
2023/07/08 14:17:06;;;;;;;7.07;5.35;;;;;;;;;;5108322;27;41242;-58
2023/07/08 14:19:34;;;;;;;5.28;4.78;;;;;;;;;;5108616;27;41050;-58
2023/07/08 14:22:02;;;;;;;6.22;4.90;;;;;;;;;;5109535;27;43204;-57
2023/07/08 14:24:30;;;;;;;5.60;4.88;;;;;;;;;;5107701;27;42206;-58
2023/07/08 14:26:58;;;;;;;5.55;4.95;;;;;;;;;;5108943;27;41843;-57
2023/07/08 14:29:26;;;;;;;8.93;4.88;;;;;;;;;;5108218;27;39894;-56
2023/07/08 14:31:54;;;;;;;6.82;5.30;;;;;;;;;;5108681;27;41742;-57
2023/07/08 14:34:24;;;;;;;6.93;5.22;;;;;;;;;;5108313;27;43241;-58
2023/07/08 14:36:52;;;;;;;7.03;4.72;;;;;;;;;;5109174;27;41292;-58
2023/07/08 14:39:20;;;;;;;5.13;4.63;;;;;;;;;;5107242;27;41555;-58
2023/07/08 14:41:49;;;;;;;6.15;5.47;;;;;;;;;;5109130;27;42200;-58
2023/07/08 14:44:19;;;;;;;6.35;5.40;;;;;;;;;;5107066;27;40981;-58
2023/07/08 14:46:47;;;;;;;5.93;4.80;;;;;;;;;;5108755;27;41622;-58
2023/07/08 14:49:15;;;;;;;5.30;4.80;;;;;;;;;;5109383;27;40781;-56
2023/07/08 14:51:45;;;;;;;5.95;5.18;;;;;;;;;;5107599;27;42146;-58
2023/07/08 14:54:13;;;;;;;8.27;5.28;;;;;;;;;;5108682;27;42066;-57